sensor_id;sensor_type;location;lat;lon;timestamp;P1;durP1;ratioP1;P2;durP2;ratioP2
69779;SDS011;57052;55.602;38.096;2022-12-31T00:00:57;46.22;;;16.48;;
69779;SDS011;57052;55.602;38.096;2022-12-31T00:03:23;44.30;;;16.08;;
69779;SDS011;57052;55.602;38.096;2022-12-31T00:05:49;40.78;;;15.13;;
69779;SDS011;57052;55.602;38.096;2022-12-31T00:08:15;46.35;;;15.77;;
69779;SDS011;57052;55.602;38.096;2022-12-31T00:10:40;45.13;;;15.98;;
69779;SDS011;57052;55.602;38.096;2022-12-31T00:13:09;49.72;;;14.85;;
69779;SDS011;57052;55.602;38.096;2022-12-31T00:15:36;41.65;;;15.02;;
69779;SDS011;57052;55.602;38.096;2022-12-31T00:18:02;40.17;;;14.38;;
69779;SDS011;57052;55.602;38.096;2022-12-31T00:20:28;41.88;;;14.95;;
69779;SDS011;57052;55.602;38.096;2022-12-31T00:22:54;42.72;;;13.48;;
69779;SDS011;57052;55.602;38.096;2022-12-31T00:25:20;41.00;;;13.65;;
69779;SDS011;57052;55.602;38.096;2022-12-31T00:27:45;41.85;;;13.10;;
69779;SDS011;57052;55.602;38.096;2022-12-31T00:30:11;42.80;;;13.18;;
69779;SDS011;57052;55.602;38.096;2022-12-31T00:32:37;37.70;;;13.95;;
69779;SDS011;57052;55.602;38.096;2022-12-31T00:35:03;36.17;;;13.27;;
69779;SDS011;57052;55.602;38.096;2022-12-31T00:37:29;32.25;;;11.25;;
69779;SDS011;57052;55.602;38.096;2022-12-31T00:39:54;33.35;;;11.52;;
69779;SDS011;57052;55.602;38.096;2022-12-31T00:42:20;32.53;;;12.35;;
69779;SDS011;57052;55.602;38.096;2022-12-31T00:44:46;31.58;;;12.95;;
69779;SDS011;57052;55.602;38.096;2022-12-31T00:47:11;28.75;;;11.13;;
69779;SDS011;57052;55.602;38.096;2022-12-31T00:49:37;30.98;;;11.73;;
69779;SDS011;57052;55.602;38.096;2022-12-31T00:52:02;36.50;;;12.15;;
69779;SDS011;57052;55.602;38.096;2022-12-31T00:54:29;31.90;;;11.85;;
69779;SDS011;57052;55.602;38.096;2022-12-31T00:56:54;28.83;;;11.38;;
69779;SDS011;57052;55.602;38.096;2022-12-31T00:59:20;28.95;;;11.30;;
69779;SDS011;57052;55.602;38.096;2022-12-31T01:01:45;28.35;;;11.40;;
69779;SDS011;57052;55.602;38.096;2022-12-31T01:04:12;28.27;;;11.35;;
69779;SDS011;57052;55.602;38.096;2022-12-31T01:06:41;26.65;;;10.65;;
69779;SDS011;57052;55.602;38.096;2022-12-31T01:09:07;26.63;;;10.30;;
69779;SDS011;57052;55.602;38.096;2022-12-31T01:11:34;24.52;;;10.02;;
69779;SDS011;57052;55.602;38.096;2022-12-31T01:14:04;25.05;;;9.68;;
69779;SDS011;57052;55.602;38.096;2022-12-31T01:16:39;28.70;;;10.27;;
69779;SDS011;57052;55.602;38.096;2022-12-31T01:19:07;26.58;;;10.70;;
69779;SDS011;57052;55.602;38.096;2022-12-31T01:21:35;25.42;;;10.75;;
69779;SDS011;57052;55.602;38.096;2022-12-31T01:24:02;27.85;;;10.18;;
69779;SDS011;57052;55.602;38.096;2022-12-31T01:26:28;26.48;;;10.20;;
69779;SDS011;57052;55.602;38.096;2022-12-31T01:28:54;26.55;;;10.23;;
69779;SDS011;57052;55.602;38.096;2022-12-31T01:31:21;27.15;;;10.32;;
69779;SDS011;57052;55.602;38.096;2022-12-31T01:33:47;24.70;;;10.48;;
69779;SDS011;57052;55.602;38.096;2022-12-31T01:36:15;24.48;;;10.40;;
69779;SDS011;57052;55.602;38.096;2022-12-31T01:38:45;25.30;;;9.93;;
69779;SDS011;57052;55.602;38.096;2022-12-31T01:41:14;25.23;;;10.18;;
69779;SDS011;57052;55.602;38.096;2022-12-31T01:46:11;25.10;;;10.50;;
69779;SDS011;57052;55.602;38.096;2022-12-31T01:48:50;25.55;;;10.07;;
69779;SDS011;57052;55.602;38.096;2022-12-31T01:51:20;27.50;;;10.85;;
69779;SDS011;57052;55.602;38.096;2022-12-31T01:53:46;24.65;;;10.18;;
69779;SDS011;57052;55.602;38.096;2022-12-31T01:56:15;27.98;;;10.52;;
69779;SDS011;57052;55.602;38.096;2022-12-31T01:58:44;26.80;;;10.15;;
69779;SDS011;57052;55.602;38.096;2022-12-31T02:01:14;25.40;;;9.95;;
69779;SDS011;57052;55.602;38.096;2022-12-31T02:03:45;24.33;;;9.73;;
69779;SDS011;57052;55.602;38.096;2022-12-31T02:06:19;27.52;;;10.63;;
69779;SDS011;57052;55.602;38.096;2022-12-31T02:08:47;25.13;;;10.20;;
69779;SDS011;57052;55.602;38.096;2022-12-31T02:11:20;25.23;;;10.60;;
69779;SDS011;57052;55.602;38.096;2022-12-31T02:13:49;28.17;;;10.50;;
69779;SDS011;57052;55.602;38.096;2022-12-31T02:22:25;23.90;;;10.15;;
69779;SDS011;57052;55.602;38.096;2022-12-31T02:25:16;20.40;;;9.38;;
69779;SDS011;57052;55.602;38.096;2022-12-31T02:30:30;21.98;;;9.40;;
69779;SDS011;57052;55.602;38.096;2022-12-31T02:35:40;23.98;;;9.20;;
69779;SDS011;57052;55.602;38.096;2022-12-31T02:38:11;19.40;;;7.95;;
69779;SDS011;57052;55.602;38.096;2022-12-31T02:40:42;18.67;;;8.32;;
69779;SDS011;57052;55.602;38.096;2022-12-31T02:43:08;24.35;;;9.20;;
69779;SDS011;57052;55.602;38.096;2022-12-31T02:45:36;17.40;;;7.95;;
69779;SDS011;57052;55.602;38.096;2022-12-31T02:50:32;15.20;;;7.22;;
69779;SDS011;57052;55.602;38.096;2022-12-31T02:56:18;17.35;;;8.07;;
69779;SDS011;57052;55.602;38.096;2022-12-31T03:01:39;17.40;;;7.55;;
69779;SDS011;57052;55.602;38.096;2022-12-31T03:04:29;17.02;;;7.60;;
69779;SDS011;57052;55.602;38.096;2022-12-31T03:07:08;16.50;;;7.28;;
69779;SDS011;57052;55.602;38.096;2022-12-31T03:09:35;16.25;;;6.95;;
69779;SDS011;57052;55.602;38.096;2022-12-31T03:12:02;14.38;;;7.45;;
69779;SDS011;57052;55.602;38.096;2022-12-31T03:14:48;16.40;;;7.57;;
69779;SDS011;57052;55.602;38.096;2022-12-31T03:17:14;16.92;;;7.55;;
69779;SDS011;57052;55.602;38.096;2022-12-31T03:19:40;16.10;;;7.28;;
69779;SDS011;57052;55.602;38.096;2022-12-31T03:22:24;16.00;;;7.03;;
69779;SDS011;57052;55.602;38.096;2022-12-31T03:24:58;13.75;;;6.20;;
69779;SDS011;57052;55.602;38.096;2022-12-31T03:27:44;13.20;;;6.50;;
69779;SDS011;57052;55.602;38.096;2022-12-31T03:30:11;14.20;;;7.00;;
69779;SDS011;57052;55.602;38.096;2022-12-31T03:32:38;12.25;;;6.00;;
69779;SDS011;57052;55.602;38.096;2022-12-31T03:35:04;13.50;;;6.53;;
69779;SDS011;57052;55.602;38.096;2022-12-31T03:37:31;12.90;;;6.00;;
69779;SDS011;57052;55.602;38.096;2022-12-31T03:39:56;13.77;;;6.55;;
69779;SDS011;57052;55.602;38.096;2022-12-31T03:42:22;12.77;;;5.63;;
69779;SDS011;57052;55.602;38.096;2022-12-31T03:44:47;12.15;;;6.45;;
69779;SDS011;57052;55.602;38.096;2022-12-31T03:47:13;12.15;;;5.82;;
69779;SDS011;57052;55.602;38.096;2022-12-31T03:49:39;13.43;;;5.90;;
69779;SDS011;57052;55.602;38.096;2022-12-31T03:52:04;11.73;;;5.80;;
69779;SDS011;57052;55.602;38.096;2022-12-31T03:54:31;12.73;;;6.40;;
69779;SDS011;57052;55.602;38.096;2022-12-31T03:56:56;13.70;;;6.30;;
69779;SDS011;57052;55.602;38.096;2022-12-31T03:59:22;12.45;;;6.45;;
69779;SDS011;57052;55.602;38.096;2022-12-31T04:01:48;12.80;;;5.80;;
69779;SDS011;57052;55.602;38.096;2022-12-31T04:04:13;13.75;;;6.20;;
69779;SDS011;57052;55.602;38.096;2022-12-31T04:06:39;13.73;;;6.50;;
69779;SDS011;57052;55.602;38.096;2022-12-31T04:09:04;13.75;;;6.18;;
69779;SDS011;57052;55.602;38.096;2022-12-31T04:11:30;11.10;;;6.30;;
69779;SDS011;57052;55.602;38.096;2022-12-31T04:13:55;13.32;;;6.20;;
69779;SDS011;57052;55.602;38.096;2022-12-31T04:16:23;17.20;;;6.90;;
69779;SDS011;57052;55.602;38.096;2022-12-31T04:18:49;12.77;;;6.57;;
69779;SDS011;57052;55.602;38.096;2022-12-31T04:21:14;13.32;;;6.70;;
69779;SDS011;57052;55.602;38.096;2022-12-31T04:23:40;15.38;;;7.00;;
69779;SDS011;57052;55.602;38.096;2022-12-31T04:26:06;14.05;;;6.25;;
69779;SDS011;57052;55.602;38.096;2022-12-31T04:28:31;13.63;;;6.60;;
69779;SDS011;57052;55.602;38.096;2022-12-31T04:30:57;12.82;;;6.22;;
69779;SDS011;57052;55.602;38.096;2022-12-31T04:33:22;11.52;;;6.00;;
69779;SDS011;57052;55.602;38.096;2022-12-31T04:35:48;12.55;;;6.43;;
69779;SDS011;57052;55.602;38.096;2022-12-31T04:38:14;12.73;;;6.25;;
69779;SDS011;57052;55.602;38.096;2022-12-31T04:40:39;13.63;;;6.43;;
69779;SDS011;57052;55.602;38.096;2022-12-31T04:43:25;11.15;;;5.93;;
69779;SDS011;57052;55.602;38.096;2022-12-31T04:45:50;14.32;;;6.82;;
69779;SDS011;57052;55.602;38.096;2022-12-31T04:48:16;11.88;;;6.03;;
69779;SDS011;57052;55.602;38.096;2022-12-31T04:50:44;13.80;;;6.68;;
69779;SDS011;57052;55.602;38.096;2022-12-31T04:53:10;15.05;;;6.80;;
69779;SDS011;57052;55.602;38.096;2022-12-31T04:55:35;13.45;;;6.85;;
69779;SDS011;57052;55.602;38.096;2022-12-31T04:58:01;15.30;;;7.07;;
69779;SDS011;57052;55.602;38.096;2022-12-31T05:00:27;13.85;;;6.97;;
69779;SDS011;57052;55.602;38.096;2022-12-31T05:02:52;13.90;;;6.65;;
69779;SDS011;57052;55.602;38.096;2022-12-31T05:05:18;14.07;;;6.78;;
69779;SDS011;57052;55.602;38.096;2022-12-31T05:07:43;13.45;;;6.93;;
69779;SDS011;57052;55.602;38.096;2022-12-31T05:10:09;15.50;;;7.90;;
69779;SDS011;57052;55.602;38.096;2022-12-31T05:12:38;16.67;;;7.18;;
69779;SDS011;57052;55.602;38.096;2022-12-31T05:15:04;14.93;;;7.07;;
69779;SDS011;57052;55.602;38.096;2022-12-31T05:17:30;14.20;;;6.45;;
69779;SDS011;57052;55.602;38.096;2022-12-31T05:19:55;13.73;;;6.93;;
69779;SDS011;57052;55.602;38.096;2022-12-31T05:22:21;14.20;;;6.70;;
69779;SDS011;57052;55.602;38.096;2022-12-31T05:24:53;15.20;;;6.90;;
69779;SDS011;57052;55.602;38.096;2022-12-31T05:27:18;13.75;;;7.10;;
69779;SDS011;57052;55.602;38.096;2022-12-31T05:29:44;13.32;;;7.07;;
69779;SDS011;57052;55.602;38.096;2022-12-31T05:32:10;13.75;;;7.20;;
69779;SDS011;57052;55.602;38.096;2022-12-31T05:34:42;13.70;;;7.35;;
69779;SDS011;57052;55.602;38.096;2022-12-31T05:37:07;15.25;;;7.25;;
69779;SDS011;57052;55.602;38.096;2022-12-31T05:39:33;15.18;;;7.53;;
69779;SDS011;57052;55.602;38.096;2022-12-31T05:41:59;15.30;;;7.40;;
69779;SDS011;57052;55.602;38.096;2022-12-31T05:44:25;19.38;;;8.73;;
69779;SDS011;57052;55.602;38.096;2022-12-31T05:46:51;14.82;;;7.30;;
69779;SDS011;57052;55.602;38.096;2022-12-31T05:49:16;18.98;;;8.32;;
69779;SDS011;57052;55.602;38.096;2022-12-31T05:51:42;18.35;;;8.88;;
69779;SDS011;57052;55.602;38.096;2022-12-31T05:54:08;18.98;;;8.43;;
69779;SDS011;57052;55.602;38.096;2022-12-31T05:56:33;19.58;;;8.75;;
69779;SDS011;57052;55.602;38.096;2022-12-31T05:58:59;17.50;;;7.93;;
69779;SDS011;57052;55.602;38.096;2022-12-31T06:01:25;18.17;;;7.47;;
69779;SDS011;57052;55.602;38.096;2022-12-31T06:03:50;15.90;;;7.43;;
69779;SDS011;57052;55.602;38.096;2022-12-31T06:06:16;17.27;;;7.13;;
69779;SDS011;57052;55.602;38.096;2022-12-31T06:08:41;14.23;;;7.10;;
69779;SDS011;57052;55.602;38.096;2022-12-31T06:11:07;14.20;;;7.00;;
69779;SDS011;57052;55.602;38.096;2022-12-31T06:13:33;13.88;;;6.75;;
69779;SDS011;57052;55.602;38.096;2022-12-31T06:16:03;12.90;;;6.53;;
69779;SDS011;57052;55.602;38.096;2022-12-31T06:18:30;16.27;;;6.97;;
69779;SDS011;57052;55.602;38.096;2022-12-31T06:20:56;12.60;;;6.63;;
69779;SDS011;57052;55.602;38.096;2022-12-31T06:23:22;11.60;;;6.25;;
69779;SDS011;57052;55.602;38.096;2022-12-31T06:25:48;13.30;;;6.20;;
69779;SDS011;57052;55.602;38.096;2022-12-31T06:28:14;14.35;;;6.93;;
69779;SDS011;57052;55.602;38.096;2022-12-31T06:30:40;13.05;;;6.55;;
69779;SDS011;57052;55.602;38.096;2022-12-31T06:33:05;13.30;;;6.53;;
69779;SDS011;57052;55.602;38.096;2022-12-31T06:35:31;13.57;;;6.63;;
69779;SDS011;57052;55.602;38.096;2022-12-31T06:37:56;13.13;;;7.05;;
69779;SDS011;57052;55.602;38.096;2022-12-31T06:40:22;17.33;;;7.15;;
69779;SDS011;57052;55.602;38.096;2022-12-31T06:42:48;13.60;;;6.55;;
69779;SDS011;57052;55.602;38.096;2022-12-31T06:45:13;13.50;;;6.40;;
69779;SDS011;57052;55.602;38.096;2022-12-31T06:47:39;12.70;;;6.82;;
69779;SDS011;57052;55.602;38.096;2022-12-31T06:50:05;15.30;;;6.85;;
69779;SDS011;57052;55.602;38.096;2022-12-31T06:52:31;14.50;;;6.63;;
69779;SDS011;57052;55.602;38.096;2022-12-31T06:54:57;13.45;;;6.70;;
69779;SDS011;57052;55.602;38.096;2022-12-31T06:57:23;13.13;;;6.05;;
69779;SDS011;57052;55.602;38.096;2022-12-31T06:59:49;12.05;;;6.13;;
69779;SDS011;57052;55.602;38.096;2022-12-31T07:10:23;16.60;;;7.13;;
69779;SDS011;57052;55.602;38.096;2022-12-31T07:13:01;16.10;;;6.63;;
69779;SDS011;57052;55.602;38.096;2022-12-31T07:20:45;15.23;;;6.43;;
69779;SDS011;57052;55.602;38.096;2022-12-31T07:23:11;12.00;;;5.57;;
69779;SDS011;57052;55.602;38.096;2022-12-31T07:25:37;10.63;;;5.43;;
69779;SDS011;57052;55.602;38.096;2022-12-31T07:28:52;14.63;;;6.28;;
69779;SDS011;57052;55.602;38.096;2022-12-31T07:45:03;9.55;;;5.18;;
69779;SDS011;57052;55.602;38.096;2022-12-31T07:47:43;10.63;;;5.10;;
69779;SDS011;57052;55.602;38.096;2022-12-31T07:50:16;9.50;;;4.95;;
69779;SDS011;57052;55.602;38.096;2022-12-31T07:52:42;11.15;;;5.13;;
69779;SDS011;57052;55.602;38.096;2022-12-31T07:55:09;9.18;;;5.28;;
69779;SDS011;57052;55.602;38.096;2022-12-31T07:57:45;8.45;;;4.70;;
69779;SDS011;57052;55.602;38.096;2022-12-31T08:00:23;10.82;;;5.10;;
69779;SDS011;57052;55.602;38.096;2022-12-31T08:05:48;12.57;;;5.88;;
69779;SDS011;57052;55.602;38.096;2022-12-31T08:14:22;8.90;;;4.72;;
69779;SDS011;57052;55.602;38.096;2022-12-31T08:16:48;10.90;;;5.07;;
69779;SDS011;57052;55.602;38.096;2022-12-31T08:19:26;12.25;;;5.65;;
69779;SDS011;57052;55.602;38.096;2022-12-31T08:27:35;10.57;;;5.25;;
69779;SDS011;57052;55.602;38.096;2022-12-31T08:38:06;10.70;;;5.35;;
69779;SDS011;57052;55.602;38.096;2022-12-31T08:45:51;9.65;;;4.85;;
69779;SDS011;57052;55.602;38.096;2022-12-31T08:50:57;9.32;;;4.70;;
69779;SDS011;57052;55.602;38.096;2022-12-31T08:53:23;9.93;;;4.70;;
69779;SDS011;57052;55.602;38.096;2022-12-31T08:55:51;14.60;;;5.32;;
69779;SDS011;57052;55.602;38.096;2022-12-31T09:00:59;11.75;;;5.38;;
69779;SDS011;57052;55.602;38.096;2022-12-31T09:06:59;9.27;;;4.93;;
69779;SDS011;57052;55.602;38.096;2022-12-31T09:11:55;10.50;;;5.30;;
69779;SDS011;57052;55.602;38.096;2022-12-31T09:20:04;8.98;;;4.45;;
69779;SDS011;57052;55.602;38.096;2022-12-31T09:22:30;7.85;;;4.15;;
69779;SDS011;57052;55.602;38.096;2022-12-31T09:24:56;9.45;;;4.30;;
69779;SDS011;57052;55.602;38.096;2022-12-31T09:27:27;8.65;;;4.43;;
69779;SDS011;57052;55.602;38.096;2022-12-31T09:30:13;7.55;;;3.83;;
69779;SDS011;57052;55.602;38.096;2022-12-31T09:41:10;7.50;;;3.92;;
69779;SDS011;57052;55.602;38.096;2022-12-31T09:43:55;6.65;;;3.83;;
69779;SDS011;57052;55.602;38.096;2022-12-31T10:02:54;9.30;;;4.00;;
69779;SDS011;57052;55.602;38.096;2022-12-31T10:08:31;8.18;;;3.88;;
69779;SDS011;57052;55.602;38.096;2022-12-31T10:11:12;8.57;;;4.30;;
69779;SDS011;57052;55.602;38.096;2022-12-31T10:14:00;8.95;;;4.65;;
69779;SDS011;57052;55.602;38.096;2022-12-31T10:19:42;9.25;;;4.15;;
69779;SDS011;57052;55.602;38.096;2022-12-31T10:28:13;10.10;;;4.93;;
69779;SDS011;57052;55.602;38.096;2022-12-31T10:30:52;9.70;;;4.97;;
69779;SDS011;57052;55.602;38.096;2022-12-31T10:33:41;10.30;;;4.80;;
69779;SDS011;57052;55.602;38.096;2022-12-31T10:36:31;9.10;;;4.40;;
69779;SDS011;57052;55.602;38.096;2022-12-31T10:39:47;11.23;;;4.88;;
69779;SDS011;57052;55.602;38.096;2022-12-31T11:25:33;10.60;;;5.18;;
69779;SDS011;57052;55.602;38.096;2022-12-31T11:31:03;10.55;;;4.90;;
69779;SDS011;57052;55.602;38.096;2022-12-31T11:52:53;11.32;;;5.78;;
69779;SDS011;57052;55.602;38.096;2022-12-31T11:55:34;12.05;;;5.78;;
69779;SDS011;57052;55.602;38.096;2022-12-31T11:58:15;13.60;;;6.05;;
69779;SDS011;57052;55.602;38.096;2022-12-31T12:00:52;12.13;;;5.97;;
69779;SDS011;57052;55.602;38.096;2022-12-31T12:03:21;13.52;;;6.15;;
69779;SDS011;57052;55.602;38.096;2022-12-31T12:05:48;14.57;;;6.43;;
69779;SDS011;57052;55.602;38.096;2022-12-31T12:08:14;14.68;;;6.88;;
69779;SDS011;57052;55.602;38.096;2022-12-31T12:10:48;13.88;;;7.35;;
69779;SDS011;57052;55.602;38.096;2022-12-31T12:13:24;15.20;;;7.50;;
69779;SDS011;57052;55.602;38.096;2022-12-31T12:15:55;14.70;;;7.63;;
69779;SDS011;57052;55.602;38.096;2022-12-31T12:19:24;15.77;;;7.20;;
69779;SDS011;57052;55.602;38.096;2022-12-31T12:21:29;14.18;;;6.07;;
69779;SDS011;57052;55.602;38.096;2022-12-31T12:23:55;18.55;;;7.00;;
69779;SDS011;57052;55.602;38.096;2022-12-31T12:29:07;13.05;;;5.43;;
69779;SDS011;57052;55.602;38.096;2022-12-31T12:32:04;12.15;;;6.07;;
69779;SDS011;57052;55.602;38.096;2022-12-31T12:34:39;12.82;;;5.72;;
69779;SDS011;57052;55.602;38.096;2022-12-31T12:37:26;11.00;;;5.40;;
69779;SDS011;57052;55.602;38.096;2022-12-31T12:39:58;11.98;;;6.13;;
69779;SDS011;57052;55.602;38.096;2022-12-31T12:42:25;13.23;;;5.88;;
69779;SDS011;57052;55.602;38.096;2022-12-31T12:45:13;13.48;;;5.68;;
69779;SDS011;57052;55.602;38.096;2022-12-31T12:47:44;12.02;;;5.28;;
69779;SDS011;57052;55.602;38.096;2022-12-31T12:50:15;9.07;;;5.30;;
69779;SDS011;57052;55.602;38.096;2022-12-31T12:52:55;12.10;;;5.15;;
69779;SDS011;57052;55.602;38.096;2022-12-31T13:03:45;15.65;;;5.90;;
69779;SDS011;57052;55.602;38.096;2022-12-31T13:12:23;11.27;;;5.63;;
69779;SDS011;57052;55.602;38.096;2022-12-31T13:15:02;12.27;;;5.57;;
69779;SDS011;57052;55.602;38.096;2022-12-31T13:22:47;10.65;;;5.47;;
69779;SDS011;57052;55.602;38.096;2022-12-31T13:28:22;12.35;;;5.43;;
69779;SDS011;57052;55.602;38.096;2022-12-31T13:30:59;12.07;;;5.18;;
69779;SDS011;57052;55.602;38.096;2022-12-31T13:33:31;10.80;;;5.03;;
69779;SDS011;57052;55.602;38.096;2022-12-31T13:38:26;11.02;;;5.40;;
69779;SDS011;57052;55.602;38.096;2022-12-31T13:43:28;11.68;;;5.55;;
69779;SDS011;57052;55.602;38.096;2022-12-31T13:46:21;12.50;;;5.25;;
69779;SDS011;57052;55.602;38.096;2022-12-31T13:48:58;8.93;;;4.97;;
69779;SDS011;57052;55.602;38.096;2022-12-31T13:51:39;10.52;;;5.05;;
69779;SDS011;57052;55.602;38.096;2022-12-31T13:56:51;13.02;;;5.43;;
69779;SDS011;57052;55.602;38.096;2022-12-31T13:59:26;11.32;;;5.18;;
69779;SDS011;57052;55.602;38.096;2022-12-31T14:05:15;9.98;;;4.60;;
69779;SDS011;57052;55.602;38.096;2022-12-31T14:07:49;8.70;;;4.60;;
69779;SDS011;57052;55.602;38.096;2022-12-31T14:10:19;11.82;;;5.18;;
69779;SDS011;57052;55.602;38.096;2022-12-31T14:26:39;9.98;;;5.00;;
69779;SDS011;57052;55.602;38.096;2022-12-31T14:29:32;8.90;;;5.10;;
69779;SDS011;57052;55.602;38.096;2022-12-31T14:32:13;9.48;;;5.32;;
69779;SDS011;57052;55.602;38.096;2022-12-31T14:37:26;15.90;;;7.63;;
69779;SDS011;57052;55.602;38.096;2022-12-31T14:46:00;15.98;;;7.80;;
69779;SDS011;57052;55.602;38.096;2022-12-31T14:48:38;18.85;;;8.10;;
69779;SDS011;57052;55.602;38.096;2022-12-31T14:51:28;14.40;;;6.90;;
69779;SDS011;57052;55.602;38.096;2022-12-31T14:53:55;13.68;;;6.82;;
69779;SDS011;57052;55.602;38.096;2022-12-31T14:56:36;9.77;;;5.15;;
69779;SDS011;57052;55.602;38.096;2022-12-31T14:59:38;11.20;;;5.22;;
69779;SDS011;57052;55.602;38.096;2022-12-31T15:01:57;11.60;;;5.40;;
69779;SDS011;57052;55.602;38.096;2022-12-31T15:04:33;12.18;;;6.00;;
69779;SDS011;57052;55.602;38.096;2022-12-31T15:07:15;11.40;;;5.25;;
69779;SDS011;57052;55.602;38.096;2022-12-31T15:13:00;10.32;;;5.07;;
69779;SDS011;57052;55.602;38.096;2022-12-31T15:23:51;11.98;;;6.13;;
69779;SDS011;57052;55.602;38.096;2022-12-31T15:26:30;14.48;;;6.10;;
69779;SDS011;57052;55.602;38.096;2022-12-31T15:29:00;13.50;;;6.82;;
69779;SDS011;57052;55.602;38.096;2022-12-31T15:31:29;13.80;;;6.60;;
69779;SDS011;57052;55.602;38.096;2022-12-31T15:33:59;13.20;;;6.13;;
69779;SDS011;57052;55.602;38.096;2022-12-31T15:36:26;13.77;;;5.68;;
69779;SDS011;57052;55.602;38.096;2022-12-31T15:39:35;11.18;;;5.70;;
69779;SDS011;57052;55.602;38.096;2022-12-31T15:42:01;11.45;;;5.30;;
69779;SDS011;57052;55.602;38.096;2022-12-31T15:44:28;10.40;;;5.45;;
69779;SDS011;57052;55.602;38.096;2022-12-31T15:47:00;9.77;;;4.70;;
69779;SDS011;57052;55.602;38.096;2022-12-31T15:49:34;7.85;;;3.78;;
69779;SDS011;57052;55.602;38.096;2022-12-31T15:52:12;7.65;;;4.20;;
69779;SDS011;57052;55.602;38.096;2022-12-31T15:54:43;6.57;;;3.90;;
69779;SDS011;57052;55.602;38.096;2022-12-31T15:57:35;6.97;;;3.65;;
69779;SDS011;57052;55.602;38.096;2022-12-31T16:00:03;9.05;;;4.53;;
69779;SDS011;57052;55.602;38.096;2022-12-31T16:02:38;12.35;;;5.68;;
69779;SDS011;57052;55.602;38.096;2022-12-31T16:05:15;11.57;;;5.65;;
69779;SDS011;57052;55.602;38.096;2022-12-31T16:07:45;15.25;;;7.13;;
69779;SDS011;57052;55.602;38.096;2022-12-31T16:10:14;18.00;;;7.88;;
69779;SDS011;57052;55.602;38.096;2022-12-31T16:13:01;14.30;;;6.25;;
69779;SDS011;57052;55.602;38.096;2022-12-31T16:15:30;15.25;;;7.00;;
69779;SDS011;57052;55.602;38.096;2022-12-31T16:18:02;17.38;;;7.13;;
69779;SDS011;57052;55.602;38.096;2022-12-31T16:20:31;15.65;;;7.15;;
69779;SDS011;57052;55.602;38.096;2022-12-31T16:23:00;16.08;;;7.10;;
69779;SDS011;57052;55.602;38.096;2022-12-31T16:25:28;14.65;;;6.60;;
69779;SDS011;57052;55.602;38.096;2022-12-31T16:27:58;16.77;;;6.97;;
69779;SDS011;57052;55.602;38.096;2022-12-31T16:30:28;11.57;;;6.03;;
69779;SDS011;57052;55.602;38.096;2022-12-31T16:32:59;12.82;;;5.80;;
69779;SDS011;57052;55.602;38.096;2022-12-31T16:35:31;11.57;;;5.85;;
69779;SDS011;57052;55.602;38.096;2022-12-31T16:38:14;12.30;;;4.85;;
69779;SDS011;57052;55.602;38.096;2022-12-31T16:41:42;11.48;;;5.25;;
69779;SDS011;57052;55.602;38.096;2022-12-31T16:43:44;10.18;;;5.35;;
69779;SDS011;57052;55.602;38.096;2022-12-31T16:46:21;14.25;;;6.90;;
69779;SDS011;57052;55.602;38.096;2022-12-31T16:48:58;14.85;;;6.93;;
69779;SDS011;57052;55.602;38.096;2022-12-31T16:51:30;23.63;;;10.52;;
69779;SDS011;57052;55.602;38.096;2022-12-31T16:53:58;13.98;;;7.00;;
69779;SDS011;57052;55.602;38.096;2022-12-31T16:56:36;14.75;;;7.53;;
69779;SDS011;57052;55.602;38.096;2022-12-31T16:59:04;13.15;;;6.25;;
69779;SDS011;57052;55.602;38.096;2022-12-31T17:01:44;12.02;;;5.53;;
69779;SDS011;57052;55.602;38.096;2022-12-31T17:04:11;13.27;;;6.07;;
69779;SDS011;57052;55.602;38.096;2022-12-31T17:06:41;11.52;;;5.70;;
69779;SDS011;57052;55.602;38.096;2022-12-31T17:09:10;11.15;;;5.47;;
69779;SDS011;57052;55.602;38.096;2022-12-31T17:11:54;11.98;;;6.15;;
69779;SDS011;57052;55.602;38.096;2022-12-31T17:14:26;13.25;;;6.00;;
69779;SDS011;57052;55.602;38.096;2022-12-31T17:22:12;12.65;;;6.05;;
69779;SDS011;57052;55.602;38.096;2022-12-31T17:24:46;13.15;;;6.20;;
69779;SDS011;57052;55.602;38.096;2022-12-31T17:27:13;11.90;;;5.10;;
69779;SDS011;57052;55.602;38.096;2022-12-31T17:29:39;10.23;;;4.80;;
69779;SDS011;57052;55.602;38.096;2022-12-31T17:32:06;9.70;;;4.60;;
69779;SDS011;57052;55.602;38.096;2022-12-31T17:34:52;10.48;;;5.00;;
69779;SDS011;57052;55.602;38.096;2022-12-31T17:39:53;11.20;;;5.00;;
69779;SDS011;57052;55.602;38.096;2022-12-31T17:45:06;11.32;;;5.13;;
69779;SDS011;57052;55.602;38.096;2022-12-31T17:47:40;11.82;;;5.28;;
69779;SDS011;57052;55.602;38.096;2022-12-31T17:50:18;12.48;;;5.60;;
69779;SDS011;57052;55.602;38.096;2022-12-31T17:52:45;11.85;;;6.00;;
69779;SDS011;57052;55.602;38.096;2022-12-31T17:55:11;12.15;;;5.38;;
69779;SDS011;57052;55.602;38.096;2022-12-31T17:57:41;10.23;;;4.97;;
69779;SDS011;57052;55.602;38.096;2022-12-31T18:00:15;11.13;;;5.30;;
69779;SDS011;57052;55.602;38.096;2022-12-31T18:02:43;8.20;;;4.28;;
69779;SDS011;57052;55.602;38.096;2022-12-31T18:05:12;7.65;;;3.83;;
69779;SDS011;57052;55.602;38.096;2022-12-31T18:07:43;8.27;;;4.00;;
69779;SDS011;57052;55.602;38.096;2022-12-31T18:10:11;7.55;;;3.67;;
69779;SDS011;57052;55.602;38.096;2022-12-31T18:12:38;8.18;;;3.58;;
69779;SDS011;57052;55.602;38.096;2022-12-31T18:15:04;6.70;;;3.60;;
69779;SDS011;57052;55.602;38.096;2022-12-31T18:17:31;6.43;;;3.50;;
69779;SDS011;57052;55.602;38.096;2022-12-31T18:19:59;6.70;;;3.15;;
69779;SDS011;57052;55.602;38.096;2022-12-31T18:22:25;6.03;;;3.00;;
69779;SDS011;57052;55.602;38.096;2022-12-31T18:24:51;6.57;;;3.63;;
69779;SDS011;57052;55.602;38.096;2022-12-31T18:27:18;6.70;;;3.20;;
69779;SDS011;57052;55.602;38.096;2022-12-31T18:29:45;8.85;;;3.65;;
69779;SDS011;57052;55.602;38.096;2022-12-31T18:32:21;6.82;;;3.38;;
69779;SDS011;57052;55.602;38.096;2022-12-31T18:34:48;6.13;;;3.10;;
69779;SDS011;57052;55.602;38.096;2022-12-31T18:37:15;8.40;;;3.10;;
69779;SDS011;57052;55.602;38.096;2022-12-31T18:39:41;6.45;;;3.20;;
69779;SDS011;57052;55.602;38.096;2022-12-31T18:42:09;4.82;;;2.78;;
69779;SDS011;57052;55.602;38.096;2022-12-31T18:44:37;5.35;;;2.58;;
69779;SDS011;57052;55.602;38.096;2022-12-31T18:47:04;7.00;;;3.15;;
69779;SDS011;57052;55.602;38.096;2022-12-31T18:49:37;4.88;;;2.45;;
69779;SDS011;57052;55.602;38.096;2022-12-31T18:52:03;6.30;;;3.10;;
69779;SDS011;57052;55.602;38.096;2022-12-31T18:54:29;7.47;;;3.25;;
69779;SDS011;57052;55.602;38.096;2022-12-31T18:56:54;10.13;;;3.20;;
69779;SDS011;57052;55.602;38.096;2022-12-31T18:59:20;6.15;;;2.80;;
69779;SDS011;57052;55.602;38.096;2022-12-31T19:01:46;6.43;;;3.13;;
69779;SDS011;57052;55.602;38.096;2022-12-31T19:04:15;8.68;;;4.10;;
69779;SDS011;57052;55.602;38.096;2022-12-31T19:06:47;6.70;;;3.40;;
69779;SDS011;57052;55.602;38.096;2022-12-31T19:09:15;7.82;;;3.42;;
69779;SDS011;57052;55.602;38.096;2022-12-31T19:11:41;6.60;;;2.95;;
69779;SDS011;57052;55.602;38.096;2022-12-31T19:14:14;6.20;;;3.10;;
69779;SDS011;57052;55.602;38.096;2022-12-31T19:16:46;7.30;;;3.00;;
69779;SDS011;57052;55.602;38.096;2022-12-31T19:19:12;8.45;;;4.22;;